Terminal Aerodrome Forecast
Issued by NWS

Home | Current Version | Previous Version | Text Only | Print | Product List | Glossary On
Versions: 1 2 3 4 5 6 7 8 9 10 11 12 13 14 15
000
FTUS45 KGGW 241137
TAFGDV
TAF
KGDV 241137Z 2412/2512 32006KT P6SM VCSH OVC015
     FM242000 30010KT P6SM BKN020
     FM242300 31008KT P6SM OVC015=

USA.gov is the U.S. government's official web portal to all federal, state and local government web resources and services.